sensor_id;sensor_type;location;lat;lon;timestamp;pressure;altitude;pressure_sealevel;temperature;humidity
73101;BME280;61288;53.446;-2.266;2023-07-30T00:00:00;100667.41;;;13.96;100.00
73101;BME280;61288;53.446;-2.266;2023-07-30T00:02:25;100664.81;;;13.96;100.00
73101;BME280;61288;53.446;-2.266;2023-07-30T00:04:51;100665.75;;;13.95;100.00
73101;BME280;61288;53.446;-2.266;2023-07-30T00:07:17;100673.97;;;13.87;100.00
73101;BME280;61288;53.446;-2.266;2023-07-30T00:09:45;100678.41;;;13.85;100.00
73101;BME280;61288;53.446;-2.266;2023-07-30T00:12:11;100681.78;;;13.87;100.00
73101;BME280;61288;53.446;-2.266;2023-07-30T00:14:36;100681.78;;;13.87;100.00
73101;BME280;61288;53.446;-2.266;2023-07-30T00:17:02;100682.63;;;13.88;100.00
73101;BME280;61288;53.446;-2.266;2023-07-30T00:19:28;100681.78;;;13.87;100.00
73101;BME280;61288;53.446;-2.266;2023-07-30T00:21:53;100675.66;;;13.88;100.00
73101;BME280;61288;53.446;-2.266;2023-07-30T00:24:19;100679.34;;;13.84;100.00
73101;BME280;61288;53.446;-2.266;2023-07-30T00:26:44;100685.47;;;13.83;100.00
73101;BME280;61288;53.446;-2.266;2023-07-30T00:29:10;100682.13;;;13.81;100.00
73101;BME280;61288;53.446;-2.266;2023-07-30T00:31:35;100679.63;;;13.79;100.00
73101;BME280;61288;53.446;-2.266;2023-07-30T00:34:01;100694.31;;;13.80;100.00
73101;BME280;61288;53.446;-2.266;2023-07-30T00:36:26;100682.28;;;13.78;100.00
73101;BME280;61288;53.446;-2.266;2023-07-30T00:38:52;100687.72;;;13.73;100.00
73101;BME280;61288;53.446;-2.266;2023-07-30T00:41:18;100680.03;;;13.71;100.00
73101;BME280;61288;53.446;-2.266;2023-07-30T00:43:44;100690.44;;;13.71;100.00
73101;BME280;61288;53.446;-2.266;2023-07-30T00:46:11;100679.28;;;13.69;100.00
73101;BME280;61288;53.446;-2.266;2023-07-30T00:48:36;100682.09;;;13.65;100.00
73101;BME280;61288;53.446;-2.266;2023-07-30T00:51:02;100686.56;;;13.63;100.00
73101;BME280;61288;53.446;-2.266;2023-07-30T00:53:28;100681.44;;;13.61;100.00
73101;BME280;61288;53.446;-2.266;2023-07-30T00:55:54;100687.59;;;13.60;100.00
73101;BME280;61288;53.446;-2.266;2023-07-30T00:58:21;100677.16;;;13.60;100.00
73101;BME280;61288;53.446;-2.266;2023-07-30T01:00:47;100671.03;;;13.61;100.00
73101;BME280;61288;53.446;-2.266;2023-07-30T01:03:13;100682.44;;;13.58;100.00
73101;BME280;61288;53.446;-2.266;2023-07-30T01:05:39;100680.75;;;13.57;100.00
73101;BME280;61288;53.446;-2.266;2023-07-30T01:08:05;100677.31;;;13.57;100.00
73101;BME280;61288;53.446;-2.266;2023-07-30T01:10:32;100667.91;;;13.54;100.00
73101;BME280;61288;53.446;-2.266;2023-07-30T01:12:59;100669.66;;;13.54;100.00
73101;BME280;61288;53.446;-2.266;2023-07-30T01:15:27;100671.50;;;13.52;100.00
73101;BME280;61288;53.446;-2.266;2023-07-30T01:17:53;100667.16;;;13.52;100.00
73101;BME280;61288;53.446;-2.266;2023-07-30T01:20:21;100671.59;;;13.50;100.00
73101;BME280;61288;53.446;-2.266;2023-07-30T01:22:46;100671.59;;;13.50;100.00
73101;BME280;61288;53.446;-2.266;2023-07-30T01:25:13;100680.41;;;13.48;100.00
73101;BME280;61288;53.446;-2.266;2023-07-30T01:27:44;100690.75;;;13.49;100.00
73101;BME280;61288;53.446;-2.266;2023-07-30T01:30:22;100686.47;;;13.48;100.00
73101;BME280;61288;53.446;-2.266;2023-07-30T01:32:52;100690.66;;;13.51;100.00
73101;BME280;61288;53.446;-2.266;2023-07-30T01:35:20;100682.09;;;13.49;100.00
73101;BME280;61288;53.446;-2.266;2023-07-30T01:37:50;100685.53;;;13.49;100.00
73101;BME280;61288;53.446;-2.266;2023-07-30T01:40:17;100694.13;;;13.51;100.00
73101;BME280;61288;53.446;-2.266;2023-07-30T01:42:44;100692.50;;;13.49;100.00
73101;BME280;61288;53.446;-2.266;2023-07-30T01:45:09;100690.97;;;13.45;100.00
73101;BME280;61288;53.446;-2.266;2023-07-30T01:47:35;100700.56;;;13.44;100.00
73101;BME280;61288;53.446;-2.266;2023-07-30T01:50:05;100697.16;;;13.42;100.00
73101;BME280;61288;53.446;-2.266;2023-07-30T01:52:30;100692.09;;;13.39;100.00
73101;BME280;61288;53.446;-2.266;2023-07-30T01:54:56;100690.53;;;13.36;100.00
73101;BME280;61288;53.446;-2.266;2023-07-30T01:57:24;100693.94;;;13.37;100.00
73101;BME280;61288;53.446;-2.266;2023-07-30T01:59:49;100694.13;;;13.34;100.00
73101;BME280;61288;53.446;-2.266;2023-07-30T02:02:15;100695.91;;;13.33;100.00
73101;BME280;61288;53.446;-2.266;2023-07-30T02:04:40;100699.41;;;13.32;100.00
73101;BME280;61288;53.446;-2.266;2023-07-30T02:07:06;100695.97;;;13.32;100.00
73101;BME280;61288;53.446;-2.266;2023-07-30T02:09:31;100698.66;;;13.30;100.00
73101;BME280;61288;53.446;-2.266;2023-07-30T02:11:57;100700.34;;;13.31;100.00
73101;BME280;61288;53.446;-2.266;2023-07-30T02:14:22;100694.28;;;13.31;100.00
73101;BME280;61288;53.446;-2.266;2023-07-30T02:16:49;100695.13;;;13.31;100.00
73101;BME280;61288;53.446;-2.266;2023-07-30T02:19:15;100686.56;;;13.29;100.00
73101;BME280;61288;53.446;-2.266;2023-07-30T02:21:41;100685.72;;;13.28;100.00
73101;BME280;61288;53.446;-2.266;2023-07-30T02:24:10;100680.50;;;13.28;100.00
73101;BME280;61288;53.446;-2.266;2023-07-30T02:26:40;100674.47;;;13.28;100.00
73101;BME280;61288;53.446;-2.266;2023-07-30T02:29:06;100667.44;;;13.30;100.00
73101;BME280;61288;53.446;-2.266;2023-07-30T02:31:32;100659.53;;;13.32;100.00
73101;BME280;61288;53.446;-2.266;2023-07-30T02:33:59;100654.25;;;13.33;100.00
73101;BME280;61288;53.446;-2.266;2023-07-30T02:36:26;100650.72;;;13.34;100.00
73101;BME280;61288;53.446;-2.266;2023-07-30T02:38:52;100636.69;;;13.37;100.00
73101;BME280;61288;53.446;-2.266;2023-07-30T02:41:18;100631.31;;;13.40;100.00
73101;BME280;61288;53.446;-2.266;2023-07-30T02:43:44;100631.22;;;13.43;100.00
73101;BME280;61288;53.446;-2.266;2023-07-30T02:46:11;100622.50;;;13.44;100.00
73101;BME280;61288;53.446;-2.266;2023-07-30T02:48:37;100621.47;;;13.47;100.00
73101;BME280;61288;53.446;-2.266;2023-07-30T02:51:03;100605.78;;;13.48;100.00
73101;BME280;61288;53.446;-2.266;2023-07-30T02:53:29;100602.16;;;13.51;100.00
73101;BME280;61288;53.446;-2.266;2023-07-30T02:55:56;100593.34;;;13.53;100.00
73101;BME280;61288;53.446;-2.266;2023-07-30T02:58:21;100595.84;;;13.55;100.00
73101;BME280;61288;53.446;-2.266;2023-07-30T03:00:47;100594.09;;;13.55;100.00
73101;BME280;61288;53.446;-2.266;2023-07-30T03:03:13;100589.66;;;13.57;100.00
73101;BME280;61288;53.446;-2.266;2023-07-30T03:05:41;100583.59;;;13.57;100.00
73101;BME280;61288;53.446;-2.266;2023-07-30T03:08:07;100571.50;;;13.56;100.00
73101;BME280;61288;53.446;-2.266;2023-07-30T03:10:33;100581.16;;;13.54;100.00
73101;BME280;61288;53.446;-2.266;2023-07-30T03:12:58;100587.38;;;13.51;100.00
73101;BME280;61288;53.446;-2.266;2023-07-30T03:15:24;100587.47;;;13.50;100.00
73101;BME280;61288;53.446;-2.266;2023-07-30T03:17:49;100603.25;;;13.47;100.00
73101;BME280;61288;53.446;-2.266;2023-07-30T03:20:15;100605.09;;;13.45;100.00
73101;BME280;61288;53.446;-2.266;2023-07-30T03:22:40;100609.69;;;13.39;100.00
73101;BME280;61288;53.446;-2.266;2023-07-30T03:25:06;100613.22;;;13.38;100.00
73101;BME280;61288;53.446;-2.266;2023-07-30T03:27:32;100613.38;;;13.35;100.00
73101;BME280;61288;53.446;-2.266;2023-07-30T03:29:57;100614.38;;;13.33;100.00
73101;BME280;61288;53.446;-2.266;2023-07-30T03:32:23;100624.19;;;13.27;100.00
73101;BME280;61288;53.446;-2.266;2023-07-30T03:34:51;100620.75;;;13.27;100.00
73101;BME280;61288;53.446;-2.266;2023-07-30T03:37:16;100623.44;;;13.25;100.00
73101;BME280;61288;53.446;-2.266;2023-07-30T03:39:42;100629.56;;;13.24;100.00
73101;BME280;61288;53.446;-2.266;2023-07-30T03:42:07;100636.66;;;13.21;100.00
73101;BME280;61288;53.446;-2.266;2023-07-30T03:44:33;100639.38;;;13.19;100.00
73101;BME280;61288;53.446;-2.266;2023-07-30T03:46:58;100633.63;;;13.12;100.00
73101;BME280;61288;53.446;-2.266;2023-07-30T03:49:24;100633.81;;;13.09;100.00
73101;BME280;61288;53.446;-2.266;2023-07-30T03:51:49;100640.75;;;13.09;100.00
73101;BME280;61288;53.446;-2.266;2023-07-30T03:54:15;100648.50;;;13.10;100.00
73101;BME280;61288;53.446;-2.266;2023-07-30T03:56:40;100647.66;;;13.10;100.00
73101;BME280;61288;53.446;-2.266;2023-07-30T03:59:06;100652.88;;;13.10;100.00
73101;BME280;61288;53.446;-2.266;2023-07-30T04:01:32;100650.16;;;13.11;100.00
73101;BME280;61288;53.446;-2.266;2023-07-30T04:03:57;100647.56;;;13.11;100.00
73101;BME280;61288;53.446;-2.266;2023-07-30T04:06:23;100649.25;;;13.12;100.00
73101;BME280;61288;53.446;-2.266;2023-07-30T04:08:48;100653.53;;;13.13;100.00
73101;BME280;61288;53.446;-2.266;2023-07-30T04:11:14;100640.53;;;13.13;100.00
73101;BME280;61288;53.446;-2.266;2023-07-30T04:13:39;100641.38;;;13.14;100.00
73101;BME280;61288;53.446;-2.266;2023-07-30T04:16:06;100636.16;;;13.14;100.00
73101;BME280;61288;53.446;-2.266;2023-07-30T04:18:31;100641.28;;;13.15;100.00
73101;BME280;61288;53.446;-2.266;2023-07-30T04:20:57;100647.41;;;13.14;100.00
73101;BME280;61288;53.446;-2.266;2023-07-30T04:23:22;100636.94;;;13.16;100.00
73101;BME280;61288;53.446;-2.266;2023-07-30T04:25:51;100641.22;;;13.17;100.00
73101;BME280;61288;53.446;-2.266;2023-07-30T04:28:17;100637.69;;;13.18;100.00
73101;BME280;61288;53.446;-2.266;2023-07-30T04:30:43;100630.63;;;13.20;100.00
73101;BME280;61288;53.446;-2.266;2023-07-30T04:33:09;100633.16;;;13.22;100.00
73101;BME280;61288;53.446;-2.266;2023-07-30T04:35:34;100626.09;;;13.24;100.00
73101;BME280;61288;53.446;-2.266;2023-07-30T04:38:00;100640.72;;;13.26;100.00
73101;BME280;61288;53.446;-2.266;2023-07-30T04:40:26;100639.78;;;13.27;100.00
73101;BME280;61288;53.446;-2.266;2023-07-30T04:42:51;100636.28;;;13.28;100.00
73101;BME280;61288;53.446;-2.266;2023-07-30T04:45:17;100647.59;;;13.27;100.00
73101;BME280;61288;53.446;-2.266;2023-07-30T04:47:42;100640.66;;;13.28;100.00
73101;BME280;61288;53.446;-2.266;2023-07-30T04:50:09;100644.00;;;13.30;100.00
73101;BME280;61288;53.446;-2.266;2023-07-30T04:52:37;100650.91;;;13.31;100.00
73101;BME280;61288;53.446;-2.266;2023-07-30T04:55:03;100654.31;;;13.32;100.00
73101;BME280;61288;53.446;-2.266;2023-07-30T04:57:29;100659.47;;;13.33;100.00
73101;BME280;61288;53.446;-2.266;2023-07-30T04:59:54;100655.09;;;13.34;100.00
73101;BME280;61288;53.446;-2.266;2023-07-30T05:02:20;100650.81;;;13.33;100.00
73101;BME280;61288;53.446;-2.266;2023-07-30T05:04:45;100651.56;;;13.35;100.00
73101;BME280;61288;53.446;-2.266;2023-07-30T05:07:11;100654.09;;;13.36;100.00
73101;BME280;61288;53.446;-2.266;2023-07-30T05:09:37;100658.44;;;13.36;100.00
73101;BME280;61288;53.446;-2.266;2023-07-30T05:12:03;100659.28;;;13.36;100.00
73101;BME280;61288;53.446;-2.266;2023-07-30T05:14:29;100660.13;;;13.37;100.00
73101;BME280;61288;53.446;-2.266;2023-07-30T05:16:54;100667.09;;;13.36;100.00
73101;BME280;61288;53.446;-2.266;2023-07-30T05:19:20;100665.31;;;13.37;100.00
73101;BME280;61288;53.446;-2.266;2023-07-30T05:21:45;100667.94;;;13.37;100.00
73101;BME280;61288;53.446;-2.266;2023-07-30T05:24:11;100674.91;;;13.36;100.00
73101;BME280;61288;53.446;-2.266;2023-07-30T05:26:41;100680.13;;;13.36;100.00
73101;BME280;61288;53.446;-2.266;2023-07-30T05:29:08;100686.31;;;13.34;100.00
73101;BME280;61288;53.446;-2.266;2023-07-30T05:31:34;100691.50;;;13.34;100.00
73101;BME280;61288;53.446;-2.266;2023-07-30T05:33:59;100697.63;;;13.33;100.00
73101;BME280;61288;53.446;-2.266;2023-07-30T05:36:25;100702.19;;;13.29;100.00
73101;BME280;61288;53.446;-2.266;2023-07-30T05:38:52;100706.53;;;13.28;100.00
73101;BME280;61288;53.446;-2.266;2023-07-30T05:41:18;100722.25;;;13.27;100.00
73101;BME280;61288;53.446;-2.266;2023-07-30T05:43:44;100717.09;;;13.25;100.00
73101;BME280;61288;53.446;-2.266;2023-07-30T05:46:10;100709.22;;;13.27;100.00
73101;BME280;61288;53.446;-2.266;2023-07-30T05:48:36;100706.63;;;13.27;100.00
73101;BME280;61288;53.446;-2.266;2023-07-30T05:51:01;100710.16;;;13.26;100.00
73101;BME280;61288;53.446;-2.266;2023-07-30T05:53:27;100703.22;;;13.25;100.00
73101;BME280;61288;53.446;-2.266;2023-07-30T05:55:53;100698.81;;;13.27;100.00
73101;BME280;61288;53.446;-2.266;2023-07-30T05:58:18;100708.31;;;13.28;100.00
73101;BME280;61288;53.446;-2.266;2023-07-30T06:00:44;100718.78;;;13.26;100.00
73101;BME280;61288;53.446;-2.266;2023-07-30T06:03:09;100706.63;;;13.27;100.00
73101;BME280;61288;53.446;-2.266;2023-07-30T06:05:41;100727.50;;;13.25;100.00
73101;BME280;61288;53.446;-2.266;2023-07-30T06:08:08;100730.19;;;13.24;100.00
73101;BME280;61288;53.446;-2.266;2023-07-30T06:10:35;100737.91;;;13.25;100.00
73101;BME280;61288;53.446;-2.266;2023-07-30T06:13:03;100748.53;;;13.21;100.00
73101;BME280;61288;53.446;-2.266;2023-07-30T06:15:30;100765.19;;;13.18;100.00
73101;BME280;61288;53.446;-2.266;2023-07-30T06:17:56;100781.00;;;13.13;100.00
73101;BME280;61288;53.446;-2.266;2023-07-30T06:20:21;100790.50;;;13.14;100.00
73101;BME280;61288;53.446;-2.266;2023-07-30T06:22:47;100798.38;;;13.13;100.00
73101;BME280;61288;53.446;-2.266;2023-07-30T06:25:12;100796.78;;;13.10;100.00
73101;BME280;61288;53.446;-2.266;2023-07-30T06:27:38;100797.63;;;13.11;100.00
73101;BME280;61288;53.446;-2.266;2023-07-30T06:30:04;100804.50;;;13.12;100.00
73101;BME280;61288;53.446;-2.266;2023-07-30T06:32:30;100809.84;;;13.09;100.00
73101;BME280;61288;53.446;-2.266;2023-07-30T06:34:55;100812.44;;;13.09;100.00
73101;BME280;61288;53.446;-2.266;2023-07-30T06:37:23;100820.25;;;13.09;100.00
73101;BME280;61288;53.446;-2.266;2023-07-30T06:39:49;100816.59;;;13.13;100.00
73101;BME280;61288;53.446;-2.266;2023-07-30T06:42:15;100815.69;;;13.14;100.00
73101;BME280;61288;53.446;-2.266;2023-07-30T06:44:40;100810.47;;;13.14;100.00
73101;BME280;61288;53.446;-2.266;2023-07-30T06:47:06;100820.78;;;13.15;100.00
73101;BME280;61288;53.446;-2.266;2023-07-30T06:49:31;100830.22;;;13.18;100.00
73101;BME280;61288;53.446;-2.266;2023-07-30T06:51:59;100835.56;;;13.15;100.00
73101;BME280;61288;53.446;-2.266;2023-07-30T06:54:25;100844.31;;;13.14;100.00
73101;BME280;61288;53.446;-2.266;2023-07-30T06:56:50;100839.25;;;13.11;100.00
73101;BME280;61288;53.446;-2.266;2023-07-30T06:59:15;100849.88;;;13.06;100.00
73101;BME280;61288;53.446;-2.266;2023-07-30T07:01:41;100854.06;;;13.09;100.00
73101;BME280;61288;53.446;-2.266;2023-07-30T07:04:07;100850.63;;;13.08;100.00
73101;BME280;61288;53.446;-2.266;2023-07-30T07:06:33;100850.63;;;13.08;100.00
73101;BME280;61288;53.446;-2.266;2023-07-30T07:08:59;100868.78;;;13.10;100.00
73101;BME280;61288;53.446;-2.266;2023-07-30T07:11:24;100888.75;;;13.09;100.00
73101;BME280;61288;53.446;-2.266;2023-07-30T07:13:50;100898.28;;;13.09;100.00
73101;BME280;61288;53.446;-2.266;2023-07-30T07:16:16;100901.91;;;13.06;100.00
73101;BME280;61288;53.446;-2.266;2023-07-30T07:18:42;100901.97;;;13.05;100.00
73101;BME280;61288;53.446;-2.266;2023-07-30T07:21:07;100912.91;;;13.11;100.00
73101;BME280;61288;53.446;-2.266;2023-07-30T07:23:33;100922.06;;;13.20;100.00
73101;BME280;61288;53.446;-2.266;2023-07-30T07:25:59;100930.31;;;13.28;100.00
73101;BME280;61288;53.446;-2.266;2023-07-30T07:28:27;100941.44;;;13.32;100.00
73101;BME280;61288;53.446;-2.266;2023-07-30T07:30:54;100954.16;;;13.38;100.00
73101;BME280;61288;53.446;-2.266;2023-07-30T07:33:20;100941.81;;;13.42;100.00
73101;BME280;61288;53.446;-2.266;2023-07-30T07:35:46;100951.97;;;13.48;100.00
73101;BME280;61288;53.446;-2.266;2023-07-30T07:38:11;100957.94;;;13.50;100.00
73101;BME280;61288;53.446;-2.266;2023-07-30T07:40:38;100956.13;;;13.52;100.00
73101;BME280;61288;53.446;-2.266;2023-07-30T07:43:07;100963.78;;;13.55;100.00
73101;BME280;61288;53.446;-2.266;2023-07-30T07:45:34;100962.63;;;13.61;100.00
73101;BME280;61288;53.446;-2.266;2023-07-30T07:48:01;100971.13;;;13.65;100.00
73101;BME280;61288;53.446;-2.266;2023-07-30T07:50:28;100970.91;;;13.69;100.00
73101;BME280;61288;53.446;-2.266;2023-07-30T07:52:53;100961.31;;;13.70;100.00
73101;BME280;61288;53.446;-2.266;2023-07-30T07:55:19;100965.53;;;13.72;100.00
73101;BME280;61288;53.446;-2.266;2023-07-30T07:57:44;100963.72;;;13.75;100.00
73101;BME280;61288;53.446;-2.266;2023-07-30T08:00:10;100963.16;;;13.68;100.00
73101;BME280;61288;53.446;-2.266;2023-07-30T08:02:36;100962.38;;;13.66;100.00
73101;BME280;61288;53.446;-2.266;2023-07-30T08:05:01;100972.91;;;13.64;100.00
73101;BME280;61288;53.446;-2.266;2023-07-30T08:07:28;100980.72;;;13.64;100.00
73101;BME280;61288;53.446;-2.266;2023-07-30T08:09:53;100996.25;;;13.66;100.00
73101;BME280;61288;53.446;-2.266;2023-07-30T08:12:20;101009.81;;;13.72;100.00
73101;BME280;61288;53.446;-2.266;2023-07-30T08:14:46;101019.09;;;13.78;100.00
73101;BME280;61288;53.446;-2.266;2023-07-30T08:17:11;101024.78;;;13.86;100.00
73101;BME280;61288;53.446;-2.266;2023-07-30T08:19:37;101021.91;;;13.91;100.00
73101;BME280;61288;53.446;-2.266;2023-07-30T08:22:02;101011.59;;;13.90;100.00
73101;BME280;61288;53.446;-2.266;2023-07-30T08:24:29;101002.09;;;13.89;100.00
73101;BME280;61288;53.446;-2.266;2023-07-30T08:26:55;100989.06;;;13.89;100.00
73101;BME280;61288;53.446;-2.266;2023-07-30T08:29:21;100981.47;;;13.84;100.00
73101;BME280;61288;53.446;-2.266;2023-07-30T08:31:46;100973.00;;;13.80;100.00
73101;BME280;61288;53.446;-2.266;2023-07-30T08:34:12;100969.47;;;13.81;100.00
73101;BME280;61288;53.446;-2.266;2023-07-30T08:36:38;100959.88;;;13.82;100.00
73101;BME280;61288;53.446;-2.266;2023-07-30T08:39:03;100942.50;;;13.82;100.00
73101;BME280;61288;53.446;-2.266;2023-07-30T08:41:32;100939.94;;;13.81;100.00
73101;BME280;61288;53.446;-2.266;2023-07-30T08:43:58;100936.59;;;13.79;100.00
73101;BME280;61288;53.446;-2.266;2023-07-30T08:46:23;100939.13;;;13.80;100.00
73101;BME280;61288;53.446;-2.266;2023-07-30T08:48:49;100952.81;;;13.84;100.00
73101;BME280;61288;53.446;-2.266;2023-07-30T08:51:15;100944.25;;;13.82;100.00
73101;BME280;61288;53.446;-2.266;2023-07-30T08:53:42;100932.84;;;13.84;100.00
73101;BME280;61288;53.446;-2.266;2023-07-30T08:56:08;100919.56;;;13.89;100.00
73101;BME280;61288;53.446;-2.266;2023-07-30T08:58:34;100917.28;;;14.00;100.00
73101;BME280;61288;53.446;-2.266;2023-07-30T09:01:06;100929.06;;;14.08;100.00
73101;BME280;61288;53.446;-2.266;2023-07-30T09:03:35;100926.81;;;14.18;100.00
73101;BME280;61288;53.446;-2.266;2023-07-30T09:06:03;100920.28;;;14.26;100.00
73101;BME280;61288;53.446;-2.266;2023-07-30T09:08:28;100905.84;;;14.37;100.00
73101;BME280;61288;53.446;-2.266;2023-07-30T09:10:55;100908.88;;;14.45;100.00
73101;BME280;61288;53.446;-2.266;2023-07-30T09:13:22;100904.75;;;14.57;100.00
73101;BME280;61288;53.446;-2.266;2023-07-30T09:15:50;100915.72;;;14.64;100.00
73101;BME280;61288;53.446;-2.266;2023-07-30T09:18:17;100902.19;;;14.73;100.00
73101;BME280;61288;53.446;-2.266;2023-07-30T09:20:46;100906.47;;;14.74;100.00
73101;BME280;61288;53.446;-2.266;2023-07-30T09:23:12;100883.00;;;14.74;100.00
73101;BME280;61288;53.446;-2.266;2023-07-30T09:25:38;100862.38;;;14.85;100.00
73101;BME280;61288;53.446;-2.266;2023-07-30T09:28:05;100835.31;;;15.02;100.00
73101;BME280;61288;53.446;-2.266;2023-07-30T09:30:33;100828.94;;;15.08;100.00
73101;BME280;61288;53.446;-2.266;2023-07-30T09:32:59;100827.91;;;15.11;100.00
73101;BME280;61288;53.446;-2.266;2023-07-30T09:35:26;100831.00;;;15.18;100.00
73101;BME280;61288;53.446;-2.266;2023-07-30T09:38:02;100822.09;;;15.36;100.00
73101;BME280;61288;53.446;-2.266;2023-07-30T09:40:37;100826.78;;;15.45;100.00
73101;BME280;61288;53.446;-2.266;2023-07-30T09:43:05;100797.78;;;15.50;100.00
73101;BME280;61288;53.446;-2.266;2023-07-30T09:45:34;100793.31;;;15.52;100.00
73101;BME280;61288;53.446;-2.266;2023-07-30T09:48:05;100783.88;;;15.50;100.00
73101;BME280;61288;53.446;-2.266;2023-07-30T09:50:35;100781.38;;;15.48;100.00
73101;BME280;61288;53.446;-2.266;2023-07-30T09:53:01;100786.66;;;15.47;100.00
73101;BME280;61288;53.446;-2.266;2023-07-30T09:55:27;100803.94;;;15.49;100.00
73101;BME280;61288;53.446;-2.266;2023-07-30T09:57:53;100806.66;;;15.62;100.00
73101;BME280;61288;53.446;-2.266;2023-07-30T10:00:19;100792.38;;;15.68;100.00
73101;BME280;61288;53.446;-2.266;2023-07-30T10:02:49;100793.22;;;15.83;100.00
73101;BME280;61288;53.446;-2.266;2023-07-30T10:05:17;100791.19;;;16.02;100.00
73101;BME280;61288;53.446;-2.266;2023-07-30T10:07:55;100781.88;;;16.26;100.00
73101;BME280;61288;53.446;-2.266;2023-07-30T10:10:23;100785.31;;;16.41;100.00
73101;BME280;61288;53.446;-2.266;2023-07-30T10:12:51;100779.53;;;16.63;100.00
73101;BME280;61288;53.446;-2.266;2023-07-30T10:15:19;100745.06;;;16.56;100.00
73101;BME280;61288;53.446;-2.266;2023-07-30T10:17:49;100721.31;;;16.46;100.00
73101;BME280;61288;53.446;-2.266;2023-07-30T10:20:29;100711.44;;;16.37;100.00
73101;BME280;61288;53.446;-2.266;2023-07-30T10:22:58;100695.94;;;16.34;100.00
73101;BME280;61288;53.446;-2.266;2023-07-30T10:25:47;100690.84;;;16.33;100.00
73101;BME280;61288;53.446;-2.266;2023-07-30T10:30:56;100697.66;;;16.48;100.00
73101;BME280;61288;53.446;-2.266;2023-07-30T10:33:22;100689.81;;;16.48;100.00
73101;BME280;61288;53.446;-2.266;2023-07-30T10:35:48;100704.25;;;16.41;100.00
73101;BME280;61288;53.446;-2.266;2023-07-30T10:38:22;100720.66;;;16.43;100.00
73101;BME280;61288;53.446;-2.266;2023-07-30T10:43:34;100699.63;;;16.31;100.00
73101;BME280;61288;53.446;-2.266;2023-07-30T10:46:00;100712.03;;;16.28;100.00
73101;BME280;61288;53.446;-2.266;2023-07-30T10:48:33;100699.09;;;16.26;100.00
73101;BME280;61288;53.446;-2.266;2023-07-30T10:51:01;100711.09;;;16.29;100.00
73101;BME280;61288;53.446;-2.266;2023-07-30T10:53:28;100688.50;;;16.28;100.00
73101;BME280;61288;53.446;-2.266;2023-07-30T10:55:54;100708.47;;;16.29;100.00
73101;BME280;61288;53.446;-2.266;2023-07-30T10:58:25;100733.88;;;16.27;100.00
73101;BME280;61288;53.446;-2.266;2023-07-30T11:00:53;100734.16;;;16.22;100.00
73101;BME280;61288;53.446;-2.266;2023-07-30T11:03:18;100727.59;;;16.16;100.00
73101;BME280;61288;53.446;-2.266;2023-07-30T11:05:47;100711.03;;;16.16;100.00
73101;BME280;61288;53.446;-2.266;2023-07-30T11:08:14;100716.19;;;16.17;100.00
73101;BME280;61288;53.446;-2.266;2023-07-30T11:10:45;100721.88;;;16.24;100.00
73101;BME280;61288;53.446;-2.266;2023-07-30T11:13:14;100735.16;;;16.34;100.00
73101;BME280;61288;53.446;-2.266;2023-07-30T11:15:44;100720.13;;;16.38;100.00
73101;BME280;61288;53.446;-2.266;2023-07-30T11:18:12;100702.88;;;16.48;100.00
73101;BME280;61288;53.446;-2.266;2023-07-30T11:20:37;100729.00;;;16.63;100.00
73101;BME280;61288;53.446;-2.266;2023-07-30T11:23:23;100731.09;;;16.70;100.00
73101;BME280;61288;53.446;-2.266;2023-07-30T11:25:52;100734.56;;;16.71;100.00
73101;BME280;61288;53.446;-2.266;2023-07-30T11:28:32;100764.16;;;16.71;100.00
73101;BME280;61288;53.446;-2.266;2023-07-30T11:31:18;100759.56;;;16.75;100.00
73101;BME280;61288;53.446;-2.266;2023-07-30T11:33:46;100762.00;;;16.91;100.00
73101;BME280;61288;53.446;-2.266;2023-07-30T11:36:15;100746.00;;;16.96;100.00
73101;BME280;61288;53.446;-2.266;2023-07-30T11:38:42;100742.38;;;16.98;100.00
73101;BME280;61288;53.446;-2.266;2023-07-30T11:41:12;100753.16;;;17.07;100.00
73101;BME280;61288;53.446;-2.266;2023-07-30T11:43:40;100722.06;;;17.02;100.00
73101;BME280;61288;53.446;-2.266;2023-07-30T11:46:15;100724.34;;;16.94;100.00
73101;BME280;61288;53.446;-2.266;2023-07-30T11:48:43;100707.69;;;16.82;100.00
73101;BME280;61288;53.446;-2.266;2023-07-30T11:51:25;100715.94;;;16.75;100.00
73101;BME280;61288;53.446;-2.266;2023-07-30T11:53:53;100729.31;;;16.71;100.00
73101;BME280;61288;53.446;-2.266;2023-07-30T11:58:57;100703.47;;;16.66;100.00
73101;BME280;61288;53.446;-2.266;2023-07-30T12:01:25;100714.84;;;16.65;100.00
73101;BME280;61288;53.446;-2.266;2023-07-30T12:03:54;100728.38;;;16.72;100.00
73101;BME280;61288;53.446;-2.266;2023-07-30T12:06:20;100728.50;;;16.83;100.00
73101;BME280;61288;53.446;-2.266;2023-07-30T12:08:48;100738.56;;;16.89;100.00
73101;BME280;61288;53.446;-2.266;2023-07-30T12:11:17;100743.78;;;16.89;100.00
73101;BME280;61288;53.446;-2.266;2023-07-30T12:13:44;100757.00;;;16.88;100.00
73101;BME280;61288;53.446;-2.266;2023-07-30T12:16:12;100767.47;;;16.88;100.00
73101;BME280;61288;53.446;-2.266;2023-07-30T12:18:41;100774.88;;;17.09;100.00
73101;BME280;61288;53.446;-2.266;2023-07-30T12:21:07;100794.03;;;17.48;100.00
73101;BME280;61288;53.446;-2.266;2023-07-30T12:23:38;100739.56;;;17.53;100.00
73101;BME280;61288;53.446;-2.266;2023-07-30T12:26:04;100703.09;;;17.50;100.00
73101;BME280;61288;53.446;-2.266;2023-07-30T12:28:33;100709.50;;;17.46;100.00
73101;BME280;61288;53.446;-2.266;2023-07-30T12:30:59;100701.72;;;17.44;100.00
73101;BME280;61288;53.446;-2.266;2023-07-30T12:33:25;100710.03;;;17.38;100.00
73101;BME280;61288;53.446;-2.266;2023-07-30T12:35:51;100706.16;;;17.44;100.00